createdAt,value
2022-10-18T00:02:54.511Z,99450.42
2022-10-18T00:08:01.552Z,99446.00
2022-10-18T00:13:08.351Z,99452.32
2022-10-18T00:18:14.875Z,99451.49
2022-10-18T00:23:21.401Z,99448.69
2022-10-18T00:28:28.115Z,99452.08
2022-10-18T00:33:34.682Z,99448.91
2022-10-18T00:38:41.476Z,99444.29
2022-10-18T00:43:55.431Z,99441.52
2022-10-18T00:49:03.432Z,99439.09
2022-10-18T00:54:10.561Z,99436.49
2022-10-18T00:59:17.964Z,99427.75
2022-10-18T01:04:24.917Z,99432.16
2022-10-18T01:09:34.064Z,99431.98
2022-10-18T01:14:46.824Z,99431.22
2022-10-18T01:20:09.861Z,99428.61
2022-10-18T01:25:31.739Z,99429.73
2022-10-18T01:30:53.530Z,99424.38
2022-10-18T01:36:01.965Z,99416.52
2022-10-18T01:41:13.294Z,99414.52
2022-10-18T01:46:25.204Z,99417.38
2022-10-18T01:51:32.565Z,99417.92
2022-10-18T01:56:44.891Z,99409.56
2022-10-18T02:01:56.811Z,99406.44
2022-10-18T02:07:06.070Z,99404.22
2022-10-18T02:12:14.055Z,99400.77
2022-10-18T02:17:21.901Z,99402.78
2022-10-18T02:22:31.653Z,99397.77
2022-10-18T02:27:38.511Z,99390.92
2022-10-18T02:32:48.965Z,99384.94
2022-10-18T02:37:56.103Z,99387.85
2022-10-18T02:43:02.871Z,99381.25
2022-10-18T02:48:09.840Z,99377.86
2022-10-18T02:53:16.514Z,99374.23
2022-10-18T02:58:23.516Z,99375.66
2022-10-18T03:03:30.236Z,99371.81
2022-10-18T03:08:37.463Z,99378.27
2022-10-18T03:13:44.161Z,99377.14
2022-10-18T03:18:50.991Z,99372.67
2022-10-18T03:23:59.101Z,99369.45
2022-10-18T03:29:05.591Z,99371.25
2022-10-18T03:34:12.081Z,99369.51
2022-10-18T03:39:18.791Z,99370.21
2022-10-18T03:44:25.494Z,99371.41
2022-10-18T03:54:43.660Z,99375.66
2022-10-18T03:59:50.471Z,99388.16
2022-10-18T04:04:59.082Z,99388.48
2022-10-18T04:10:05.974Z,99383.98
2022-10-18T04:15:13.432Z,99384.79
2022-10-18T04:20:20.391Z,99391.37
2022-10-18T04:25:27.393Z,99390.27
2022-10-18T04:30:33.861Z,99394.30
2022-10-18T04:35:40.482Z,99397.43
2022-10-18T04:40:47.081Z,99394.07
2022-10-18T04:45:53.571Z,99393.80
2022-10-18T04:51:00.352Z,99392.95
2022-10-18T04:56:07.411Z,99392.01
2022-10-18T05:01:14.287Z,99389.65
2022-10-18T05:06:21.021Z,99383.11
2022-10-18T05:11:27.841Z,99382.16
2022-10-18T05:16:34.651Z,99380.20
2022-10-18T05:21:41.394Z,99378.17
2022-10-18T05:26:48.301Z,99382.23
2022-10-18T05:31:54.931Z,99375.65
2022-10-18T05:37:01.832Z,99367.30
2022-10-18T05:42:09.152Z,99375.02
2022-10-18T05:47:15.561Z,99372.97
2022-10-18T05:52:22.110Z,99376.04
2022-10-18T05:57:28.628Z,99382.27
2022-10-18T06:02:35.438Z,99381.72
2022-10-18T06:07:41.991Z,99379.54
2022-10-18T06:12:48.593Z,99381.19
2022-10-18T06:17:55.221Z,99376.02
2022-10-18T06:23:02.123Z,99375.55
2022-10-18T06:28:11.537Z,99373.98
2022-10-18T06:33:19.127Z,99377.67
2022-10-18T06:38:26.031Z,99381.30
2022-10-18T06:43:32.434Z,99377.05
2022-10-18T06:48:40.542Z,99378.63
2022-10-18T06:53:59.323Z,99379.95
2022-10-18T06:59:14.072Z,99388.39
2022-10-18T07:04:20.562Z,99384.30
2022-10-18T07:09:27.770Z,99378.65
2022-10-18T07:14:34.341Z,99378.41
2022-10-18T07:19:41.075Z,99383.05
2022-10-18T07:24:48.005Z,99376.37
2022-10-18T07:29:54.902Z,99381.23
2022-10-18T07:35:02.781Z,99383.21
2022-10-18T07:40:11.895Z,99377.77
2022-10-18T07:45:18.457Z,99374.09
2022-10-18T07:50:24.914Z,99371.80
2022-10-18T07:55:31.911Z,99368.34
2022-10-18T08:00:38.632Z,99368.26
2022-10-18T08:05:45.538Z,99356.21
2022-10-18T08:10:52.752Z,99353.80
2022-10-18T08:16:02.863Z,99350.73
2022-10-18T08:21:11.141Z,99343.41
2022-10-18T08:26:18.934Z,99346.23
2022-10-18T08:31:25.586Z,99339.86
2022-10-18T08:36:32.430Z,99341.05
2022-10-18T08:41:47.621Z,99331.85
2022-10-18T08:46:55.030Z,99323.35
2022-10-18T08:52:01.850Z,99319.97
2022-10-18T08:57:15.452Z,99319.18
2022-10-18T09:02:28.611Z,99309.77
2022-10-18T09:07:53.091Z,99306.45
2022-10-18T09:13:08.620Z,99309.02
2022-10-18T09:18:22.202Z,99310.15
2022-10-18T09:23:35.192Z,99307.81
2022-10-18T09:28:46.485Z,99307.44
2022-10-18T09:33:55.971Z,99300.04
2022-10-18T09:39:04.862Z,99297.06
2022-10-18T09:44:15.995Z,99289.02
2022-10-18T09:49:25.333Z,99288.16
2022-10-18T09:54:34.800Z,99278.41
2022-10-18T09:59:42.317Z,99276.04
2022-10-18T10:04:49.103Z,99269.35
2022-10-18T10:09:59.950Z,99263.99
2022-10-18T10:15:20.411Z,99254.45
2022-10-18T10:20:29.920Z,99246.04
2022-10-18T10:25:38.479Z,99236.89
2022-10-18T10:30:45.310Z,99227.84
2022-10-18T10:35:59.941Z,99217.36
2022-10-18T10:41:06.791Z,99212.88
2022-10-18T10:46:14.660Z,99200.58
2022-10-18T10:51:30.965Z,99194.35
2022-10-18T10:56:38.347Z,99186.79
2022-10-18T11:01:45.670Z,99179.39
2022-10-18T11:07:08.654Z,99174.27
2022-10-18T11:12:22.820Z,99161.89
2022-10-18T11:17:35.027Z,99160.95
2022-10-18T11:22:43.814Z,99151.66
2022-10-18T11:27:56.604Z,99144.26
2022-10-18T11:33:08.471Z,99132.35
2022-10-18T11:38:22.564Z,99126.37
2022-10-18T11:44:00.491Z,99120.39
2022-10-18T11:49:11.191Z,99115.59
2022-10-18T11:54:26.047Z,99112.27
2022-10-18T11:59:38.301Z,99102.66
2022-10-18T12:04:58.555Z,99089.20
2022-10-18T12:10:31.462Z,99083.36
2022-10-18T12:15:47.709Z,99070.77
2022-10-18T12:20:56.451Z,99058.71
2022-10-18T12:26:04.287Z,99050.91
2022-10-18T12:31:19.031Z,99042.96
2022-10-18T12:36:35.031Z,99029.82
2022-10-18T12:41:41.831Z,99037.93
2022-10-18T12:46:50.121Z,99033.61
2022-10-18T12:51:58.932Z,99019.66
2022-10-18T12:57:07.338Z,99013.53
2022-10-18T13:02:27.354Z,99010.52
2022-10-18T13:07:43.641Z,99000.30
2022-10-18T13:13:05.045Z,98994.48
2022-10-18T13:18:22.543Z,98995.49
2022-10-18T13:23:38.290Z,98992.17
2022-10-18T13:28:52.220Z,98990.06
2022-10-18T13:34:17.961Z,98984.23
2022-10-18T13:39:24.761Z,98975.40
2022-10-18T13:44:32.941Z,98972.97
2022-10-18T13:49:44.095Z,98958.17
2022-10-18T13:55:03.312Z,98959.27
2022-10-18T14:00:23.611Z,98953.92
2022-10-18T14:05:44.024Z,98956.82
2022-10-18T14:11:02.444Z,98957.45
2022-10-18T14:16:15.551Z,98954.86
2022-10-18T14:21:31.148Z,98947.16
2022-10-18T14:31:52.193Z,98936.75
2022-10-18T14:36:58.733Z,98936.90
2022-10-18T14:42:05.507Z,98933.13
2022-10-18T14:47:16.481Z,98928.96
2022-10-18T14:52:26.394Z,98913.61
2022-10-18T14:57:35.372Z,98898.48
2022-10-18T15:02:42.361Z,98905.09
2022-10-18T15:07:49.185Z,98898.63
2022-10-18T15:13:16.907Z,98896.99
2022-10-18T15:18:25.307Z,98892.41
2022-10-18T15:23:32.862Z,98888.09
2022-10-18T15:28:50.136Z,98891.40
2022-10-18T15:34:09.593Z,98880.92
2022-10-18T15:39:18.221Z,98875.24
2022-10-18T15:44:27.100Z,98873.91
2022-10-18T15:49:59.274Z,98872.66
2022-10-18T15:55:25.922Z,98876.90
2022-10-18T16:00:32.715Z,98881.77
2022-10-18T16:05:39.780Z,98879.65
2022-10-18T16:10:46.461Z,98884.30
2022-10-18T16:15:53.301Z,98890.68
2022-10-18T16:21:00.084Z,98895.11
2022-10-18T16:26:07.161Z,98892.98
2022-10-18T16:31:16.808Z,98893.76
2022-10-18T16:36:23.994Z,98899.90
2022-10-18T16:41:30.763Z,98909.83
2022-10-18T16:46:37.501Z,98907.70
2022-10-18T16:51:44.010Z,98905.58
2022-10-18T16:56:50.844Z,98904.14
2022-10-18T17:01:57.885Z,98905.89
2022-10-18T17:07:05.272Z,98913.69
2022-10-18T17:12:12.431Z,98919.66
2022-10-18T17:17:19.524Z,98928.41
2022-10-18T17:22:26.085Z,98935.27
2022-10-18T17:27:32.968Z,98942.58
2022-10-18T17:32:39.974Z,98939.11
2022-10-18T17:37:48.511Z,98947.30
2022-10-18T17:42:55.663Z,98949.74
2022-10-18T17:48:02.430Z,98950.69
2022-10-18T17:53:09.021Z,98954.88
2022-10-18T17:58:15.852Z,98953.99
2022-10-18T18:03:22.875Z,98953.75
2022-10-18T18:08:29.901Z,98947.92
2022-10-18T18:13:36.571Z,98944.85
2022-10-18T18:18:43.428Z,98946.92
2022-10-18T18:23:50.592Z,98949.89
2022-10-18T18:28:57.507Z,98955.73
2022-10-18T18:34:04.159Z,98960.54
2022-10-18T18:39:10.941Z,98959.12
2022-10-18T18:44:17.445Z,98971.00
2022-10-18T18:49:24.015Z,98984.70
2022-10-18T18:54:32.045Z,98982.52
2022-10-18T18:59:38.692Z,98998.41
2022-10-18T19:04:45.395Z,99007.14
2022-10-18T19:09:52.611Z,99003.21
2022-10-18T19:14:59.237Z,99011.24
2022-10-18T19:20:07.069Z,99031.26
2022-10-18T19:25:14.001Z,99035.73
2022-10-18T19:30:21.140Z,99036.92
2022-10-18T19:35:27.575Z,99033.06
2022-10-18T19:40:34.251Z,99037.39
2022-10-18T19:45:40.855Z,99053.70
2022-10-18T19:50:47.411Z,99064.64
2022-10-18T19:55:58.883Z,99074.25
2022-10-18T20:01:05.662Z,99075.66
2022-10-18T20:06:12.577Z,99084.95
2022-10-18T20:11:20.172Z,99086.05
2022-10-18T20:16:28.633Z,99093.61
2022-10-18T20:21:36.406Z,99098.04
2022-10-18T20:26:44.119Z,99107.96
2022-10-18T20:31:50.935Z,99134.66
2022-10-18T20:36:57.775Z,99131.11
2022-10-18T20:42:04.231Z,99138.90
2022-10-18T20:47:10.922Z,99139.68
2022-10-18T20:52:17.524Z,99140.73
2022-10-18T20:57:24.252Z,99146.86
2022-10-18T21:02:31.024Z,99147.02
2022-10-18T21:07:37.487Z,99153.88
2022-10-18T21:12:44.082Z,99148.05
2022-10-18T21:17:53.361Z,99142.45
2022-10-18T21:23:00.051Z,99139.14
2022-10-18T21:28:07.011Z,99134.34
2022-10-18T21:33:13.571Z,99130.95
2022-10-18T21:38:20.095Z,99118.89
2022-10-18T21:43:26.801Z,99113.93
2022-10-18T21:48:33.371Z,99119.46
2022-10-18T21:53:39.931Z,99115.52
2022-10-18T21:58:46.884Z,99118.66
2022-10-18T22:03:54.711Z,99117.02
2022-10-18T22:09:02.267Z,99110.16
2022-10-18T22:14:09.063Z,99114.17
2022-10-18T22:19:15.680Z,99117.33
2022-10-18T22:24:22.317Z,99111.35
2022-10-18T22:29:29.250Z,99110.64
2022-10-18T22:34:36.101Z,99111.11
2022-10-18T22:39:42.862Z,99105.11
2022-10-18T22:44:49.503Z,99106.30
2022-10-18T22:49:56.203Z,99103.78
2022-10-18T22:55:02.901Z,99103.39
2022-10-18T23:00:10.670Z,99096.77
2022-10-18T23:05:17.765Z,99098.83
2022-10-18T23:10:24.381Z,99106.63
2022-10-18T23:15:31.313Z,99119.38
2022-10-18T23:20:37.843Z,99114.50
2022-10-18T23:25:46.021Z,99112.92
2022-10-18T23:30:53.222Z,99115.59
2022-10-18T23:36:00.831Z,99103.00
2022-10-18T23:41:08.322Z,99100.56
2022-10-18T23:46:15.725Z,99104.34
2022-10-18T23:51:22.482Z,99102.77
2022-10-18T23:56:28.944Z,99112.28
